Time;durP1;ratioP1;P1;durP2;ratioP2;P2;SDS_P1;SDS_P2;PMS_P1;PMS_P2;Temp;Humidity;BMP_temperature;BMP_pressure;BME280_temperature;BME280_humidity;BME280_pressure;Samples;Min_cycle;Max_cycle;Signal;HPM_P1;HPM_P2
2023/04/15 00:03:05;;;;;;;15.38;6.63;;;;;;;3.06;100.00;100535.75;10371811;28;20484;-73
2023/04/15 00:08:06;;;;;;;11.63;5.45;;;;;;;2.92;100.00;100532.16;10395854;28;20075;-73
2023/04/15 00:13:07;;;;;;;11.07;6.13;;;;;;;2.78;100.00;100525.09;10399723;28;20041;-73
2023/04/15 00:18:08;;;;;;;13.65;6.28;;;;;;;2.72;100.00;100528.13;10378278;28;20096;-73
2023/04/15 00:23:08;;;;;;;16.38;9.43;;;;;;;2.77;100.00;100520.69;10365369;28;20053;-74
2023/04/15 00:28:08;;;;;;;10.68;8.40;;;;;;;2.60;100.00;100515.19;10369253;28;20420;-73
2023/04/15 00:33:09;;;;;;;9.88;7.10;;;;;;;2.45;100.00;100519.22;10405875;28;20076;-74
2023/04/15 00:38:10;;;;;;;10.05;7.20;;;;;;;2.28;100.00;100515.38;10385916;28;20045;-74
2023/04/15 00:43:10;;;;;;;10.82;7.95;;;;;;;2.33;100.00;100516.63;10369110;28;20037;-73
2023/04/15 00:48:11;;;;;;;21.20;9.82;;;;;;;2.25;100.00;100515.16;10389183;28;20136;-73
2023/04/15 00:53:11;;;;;;;11.90;7.68;;;;;;;2.11;100.00;100521.84;10393893;28;20080;-74
2023/04/15 00:58:12;;;;;;;12.68;9.15;;;;;;;2.13;100.00;100520.28;10390234;28;20065;-74
2023/04/15 01:03:14;;;;;;;9.88;7.30;;;;;;;2.00;100.00;100524.50;10350295;28;20081;-74
2023/04/15 01:08:14;;;;;;;13.60;7.72;;;;;;;1.94;100.00;100524.03;10361300;28;20466;-74
2023/04/15 01:13:15;;;;;;;16.95;7.90;;;;;;;1.85;100.00;100529.41;10360471;28;20034;-73
2023/04/15 01:18:15;;;;;;;9.75;6.22;;;;;;;1.78;100.00;100527.13;10359917;28;20450;-75
2023/04/15 01:23:16;;;;;;;16.17;8.73;;;;;;;1.83;100.00;100524.91;10355758;28;20124;-74
2023/04/15 01:28:16;;;;;;;10.05;7.22;;;;;;;1.79;100.00;100520.28;10338520;28;20577;-74
2023/04/15 01:33:17;;;;;;;14.48;8.00;;;;;;;1.81;100.00;100519.63;10357728;28;20117;-74
2023/04/15 01:38:17;;;;;;;13.20;7.82;;;;;;;1.80;100.00;100524.66;10359681;28;20038;-73
2023/04/15 01:43:18;;;;;;;9.07;6.13;;;;;;;1.66;100.00;100515.88;10359968;28;20080;-74
2023/04/15 01:48:19;;;;;;;10.80;7.57;;;;;;;1.62;100.00;100522.44;10358990;28;20556;-74
2023/04/15 01:53:19;;;;;;;11.23;7.22;;;;;;;1.65;100.00;100529.53;10369374;28;20125;-74
2023/04/15 01:58:21;;;;;;;12.23;7.78;;;;;;;1.68;100.00;100519.47;10359479;28;20038;-74
2023/04/15 02:03:22;;;;;;;11.13;7.80;;;;;;;1.53;100.00;100522.66;10360021;28;20077;-74
2023/04/15 02:08:23;;;;;;;16.17;9.37;;;;;;;1.36;100.00;100511.00;10358219;28;20034;-74
2023/04/15 02:13:23;;;;;;;13.07;8.25;;;;;;;1.36;100.00;100523.00;10358118;28;20557;-74
2023/04/15 02:18:23;;;;;;;18.33;9.52;;;;;;;1.35;100.00;100524.66;10359261;28;20030;-74
2023/04/15 02:23:24;;;;;;;12.63;8.55;;;;;;;1.45;100.00;100527.19;10364103;28;20065;-74
2023/04/15 02:28:26;;;;;;;22.48;10.48;;;;;;;1.42;100.00;100526.94;10367088;28;20131;-74
2023/04/15 02:33:26;;;;;;;13.13;8.80;;;;;;;1.41;100.00;100526.84;10357972;28;20390;-73
2023/04/15 02:38:27;;;;;;;17.05;10.98;;;;;;;1.40;100.00;100530.19;10326642;28;20043;-74
2023/04/15 02:43:27;;;;;;;20.20;11.13;;;;;;;1.43;100.00;100531.31;10335201;28;20385;-74
2023/04/15 02:48:28;;;;;;;17.33;12.20;;;;;;;1.48;100.00;100534.28;10398743;28;20049;-74
2023/04/15 02:53:28;;;;;;;16.83;10.82;;;;;;;1.67;100.00;100549.50;10403582;28;20045;-74
2023/04/15 02:58:29;;;;;;;17.40;12.93;;;;;;;1.61;100.00;100554.19;10365073;28;20374;-74
2023/04/15 03:03:29;;;;;;;20.48;11.65;;;;;;;1.54;100.00;100554.47;10364604;28;20044;-74
2023/04/15 03:08:30;;;;;;;12.27;9.07;;;;;;;1.50;100.00;100549.88;10349791;28;20045;-73
2023/04/15 03:13:30;;;;;;;17.05;12.30;;;;;;;1.43;100.00;100545.91;10388225;28;20507;-74
2023/04/15 03:18:31;;;;;;;16.48;10.95;;;;;;;1.40;100.00;100543.09;10367842;28;20188;-73
2023/04/15 03:23:31;;;;;;;23.45;14.23;;;;;;;1.40;100.00;100549.13;10364402;28;20129;-73
2023/04/15 03:28:32;;;;;;;18.45;12.13;;;;;;;1.37;100.00;100553.16;10364951;28;20422;-74
2023/04/15 03:33:32;;;;;;;27.90;13.35;;;;;;;1.35;100.00;100547.88;10364817;28;20103;-74
2023/04/15 03:38:33;;;;;;;24.10;14.77;;;;;;;1.34;100.00;100552.94;10364629;28;20126;-73
2023/04/15 03:43:33;;;;;;;23.05;14.32;;;;;;;1.32;100.00;100560.53;10388142;28;20044;-74
2023/04/15 03:48:34;;;;;;;26.08;16.45;;;;;;;1.37;100.00;100566.94;10348447;28;20077;-74
2023/04/15 03:53:35;;;;;;;27.13;19.75;;;;;;;1.27;100.00;100567.00;10370866;28;20068;-77
2023/04/15 03:58:35;;;;;;;26.50;17.45;;;;;;;1.22;100.00;100574.38;10334481;28;20061;-74
2023/04/15 04:03:36;;;;;;;39.88;20.50;;;;;;;1.15;100.00;100579.81;10348274;28;20125;-73
2023/04/15 04:08:37;;;;;;;23.80;17.42;;;;;;;1.21;100.00;100588.03;10362019;28;20113;-74
2023/04/15 04:13:37;;;;;;;30.58;21.67;;;;;;;1.07;100.00;100604.94;10363600;28;20041;-74
2023/04/15 04:18:38;;;;;;;26.95;17.58;;;;;;;1.00;100.00;100605.22;10364383;28;20083;-74
2023/04/15 04:23:38;;;;;;;27.45;20.58;;;;;;;0.95;100.00;100615.19;10381963;28;20125;-73
2023/04/15 04:28:39;;;;;;;26.35;18.75;;;;;;;1.11;100.00;100617.31;10348393;28;20379;-74
2023/04/15 04:33:40;;;;;;;29.17;22.75;;;;;;;1.15;100.00;100619.38;10321434;28;20129;-74
2023/04/15 04:38:40;;;;;;;36.67;22.58;;;;;;;1.14;100.00;100627.88;10306437;28;20108;-74
2023/04/15 04:43:41;;;;;;;33.47;22.95;;;;;;;1.05;100.00;100631.41;10322520;28;20126;-74
2023/04/15 04:48:41;;;;;;;685.88;458.15;;;;;;;0.96;100.00;100639.25;10318987;28;20038;-73
2023/04/15 04:53:42;;;;;;;85.18;48.90;;;;;;;0.97;100.00;100644.56;10321557;28;20073;-73
2023/04/15 04:58:42;;;;;;;31.42;23.85;;;;;;;1.04;100.00;100655.38;10352097;28;20125;-73
2023/04/15 05:03:43;;;;;;;34.85;26.02;;;;;;;1.03;100.00;100659.59;10394155;28;20084;-73
2023/04/15 05:08:45;;;;;;;72.85;54.05;;;;;;;1.19;100.00;100664.38;10376689;28;21437;-73
2023/04/15 05:13:45;;;;;;;;;;;;;;;1.55;100.00;100673.28;10391779;28;20045;-73
2023/04/15 05:18:46;;;;;;;42.38;27.65;;;;;;;1.68;100.00;100667.41;10374558;28;19944;-73
2023/04/15 05:23:46;;;;;;;33.95;25.10;;;;;;;1.97;100.00;100679.16;10355140;28;20034;-73
2023/04/15 05:28:47;;;;;;;39.42;26.73;;;;;;;2.32;100.00;100687.88;10391785;28;20033;-73
2023/04/15 05:33:47;;;;;;;36.75;24.67;;;;;;;2.95;100.00;100694.38;10373116;28;20129;-73
2023/04/15 05:38:48;;;;;;;24.20;21.67;;;;;;;3.81;100.00;100699.78;10364206;28;20509;-73
2023/04/15 05:43:48;;;;;;;32.35;22.83;;;;;;;4.54;100.00;100696.22;10391131;28;20042;-74
2023/04/15 05:48:49;;;;;;;29.92;19.05;;;;;;;4.97;100.00;100704.34;10392409;28;20140;-74
2023/04/15 05:53:50;;;;;;;27.55;17.02;;;;;;;4.93;100.00;100701.44;10357873;28;20056;-73
2023/04/15 05:58:50;;;;;;;22.77;14.82;;;;;;;4.80;100.00;100704.88;10358389;28;20554;-73
2023/04/15 06:03:51;;;;;;;32.50;19.38;;;;;;;4.64;100.00;100713.31;10375250;28;20195;-73
2023/04/15 06:08:52;;;;;;;26.77;15.65;;;;;;;4.68;100.00;100724.00;10385495;28;20045;-73
2023/04/15 06:13:52;;;;;;;21.73;14.60;;;;;;;4.87;100.00;100732.16;10377608;28;20049;-73
2023/04/15 06:18:53;;;;;;;21.65;15.88;;;;;;;5.28;100.00;100742.72;10358422;28;20140;-74
2023/04/15 06:23:55;;;;;;;21.42;12.82;;;;;;;5.69;100.00;100753.16;10359723;28;20050;-74
2023/04/15 06:28:55;;;;;;;20.45;13.43;;;;;;;6.60;100.00;100760.63;10356984;28;20104;-74
2023/04/15 06:33:56;;;;;;;15.70;10.93;;;;;;;7.64;100.00;100762.47;10358093;28;20156;-74
2023/04/15 06:38:56;;;;;;;16.80;9.68;;;;;;;8.88;100.00;100770.13;10364375;28;20486;-74
2023/04/15 06:43:57;;;;;;;17.40;9.35;;;;;;;10.68;100.00;100776.31;10357996;28;20038;-74
2023/04/15 06:48:57;;;;;;;11.77;9.10;;;;;;;12.14;100.00;100788.69;10358160;28;20046;-74
2023/04/15 06:53:58;;;;;;;16.98;9.82;;;;;;;12.72;100.00;100799.66;10359232;28;20119;-75
2023/04/15 06:58:58;;;;;;;13.32;8.68;;;;;;;12.06;100.00;100802.31;10356566;28;20169;-73
2023/04/15 07:03:59;;;;;;;12.57;9.40;;;;;;;12.40;100.00;100815.06;10340500;28;20080;-74
2023/04/15 07:09:00;;;;;;;14.57;8.80;;;;;;;12.83;100.00;100814.91;10357685;28;20144;-74
2023/04/15 07:14:01;;;;;;;13.70;7.90;;;;;;;12.91;100.00;100829.22;10364431;28;20065;-73
2023/04/15 07:19:01;;;;;;;12.98;8.93;;;;;;;13.59;100.00;100839.59;10347699;28;20486;-74
2023/04/15 07:24:02;;;;;;;15.48;8.93;;;;;;;14.33;100.00;100845.53;10363948;28;20128;-74
2023/04/15 07:29:02;;;;;;;15.25;8.35;;;;;;;14.26;95.34;100849.69;10366657;28;20489;-73
2023/04/15 07:34:03;;;;;;;13.40;10.45;;;;;;;13.81;99.25;100861.38;10364857;28;20060;-74
2023/04/15 07:39:04;;;;;;;13.50;9.73;;;;;;;13.83;97.77;100878.09;10365065;28;20452;-74
2023/04/15 07:44:05;;;;;;;13.32;8.02;;;;;;;14.71;97.80;100881.81;10364883;28;20117;-73
2023/04/15 07:49:06;;;;;;;12.07;8.63;;;;;;;15.46;87.33;100888.41;10366226;28;20057;-73
2023/04/15 07:54:06;;;;;;;11.63;8.00;;;;;;;15.97;87.34;100891.56;10363227;28;20113;-74
2023/04/15 07:59:08;;;;;;;9.20;6.20;;;;;;;15.84;84.66;100895.59;10364935;28;20030;-74
2023/04/15 08:04:09;;;;;;;12.90;8.23;;;;;;;15.63;84.21;100899.44;10380528;28;20128;-74
2023/04/15 08:09:11;;;;;;;12.05;6.38;;;;;;;14.46;87.93;100915.25;10362972;28;20044;-75
2023/04/15 08:14:12;;;;;;;9.48;7.18;;;;;;;14.21;93.50;100915.34;10346096;28;20073;-74
2023/04/15 08:19:12;;;;;;;10.52;7.05;;;;;;;13.79;96.42;100920.94;10362461;28;20112;-74
2023/04/15 08:24:13;;;;;;;9.48;5.80;;;;;;;13.90;94.48;100923.91;10362481;28;20129;-73
2023/04/15 08:29:13;;;;;;;9.63;5.95;;;;;;;14.35;90.45;100922.81;10346525;28;20039;-74
2023/04/15 08:34:14;;;;;;;7.95;6.40;;;;;;;15.25;86.77;100923.88;10337287;28;20122;-74
2023/04/15 08:39:15;;;;;;;7.43;4.68;;;;;;;16.94;82.19;100924.69;10378605;28;20136;-74
2023/04/15 08:44:15;;;;;;;6.50;4.45;;;;;;;16.80;77.82;100934.97;10402987;28;20129;-74
2023/04/15 08:49:16;;;;;;;6.97;5.43;;;;;;;16.49;79.74;100952.72;10401708;28;20030;-74
2023/04/15 08:54:17;;;;;;;7.45;4.95;;;;;;;17.88;73.49;100944.28;10384231;28;20152;-74
2023/04/15 08:59:17;;;;;;;7.65;5.18;;;;;;;17.50;69.73;100952.34;10386045;28;20034;-74
2023/04/15 09:04:18;;;;;;;8.32;4.35;;;;;;;16.71;69.91;100964.69;10366912;28;20034;-75
2023/04/15 09:09:18;;;;;;;7.60;4.82;;;;;;;16.23;73.29;100967.91;10361124;28;20374;-75
2023/04/15 09:14:19;;;;;;;10.27;5.43;;;;;;;16.14;74.31;100979.13;10376553;28;20132;-74
2023/04/15 09:19:20;;;;;;;7.53;5.35;;;;;;;15.72;75.18;100977.94;10362091;28;20493;-77
2023/04/15 09:24:21;;;;;;;7.10;4.55;;;;;;;16.46;72.60;100981.72;10375198;28;20128;-74
2023/04/15 09:29:23;;;;;;;7.63;4.47;;;;;;;16.72;71.36;100979.69;10360039;28;20494;-74
2023/04/15 09:34:33;;;;;;;;;;;;;;;16.37;73.99;100995.56;10374099;28;20033;-74
2023/04/15 09:39:50;;;;;;;6.57;2.90;;;;;;;17.11;68.75;101000.88;10378773;28;20432;-74
2023/04/15 09:44:54;;;;;;;4.53;3.05;;;;;;;18.00;65.28;101001.00;10369073;28;20030;-75
2023/04/15 09:49:56;;;;;;;5.00;2.58;;;;;;;16.40;67.63;101008.84;10351590;28;20409;-76
2023/04/15 09:54:57;;;;;;;6.82;2.65;;;;;;;14.99;71.05;101025.88;10370212;28;20450;-75
2023/04/15 09:59:58;;;;;;;5.10;2.53;;;;;;;14.66;74.48;101026.53;10358467;28;20093;-74
2023/04/15 10:04:59;;;;;;;3.95;2.80;;;;;;;14.86;75.46;101031.59;10358883;28;20122;-76
2023/04/15 10:10:02;;;;;;;5.50;3.45;;;;;;;15.50;75.96;101035.34;10360099;28;20053;-74
2023/04/15 10:15:03;;;;;;;6.47;3.60;;;;;;;15.74;75.64;101043.97;10371932;28;20038;-75
2023/04/15 10:20:05;;;;;;;5.57;2.57;;;;;;;15.00;73.91;101047.84;10392799;28;20041;-74
2023/04/15 10:25:05;;;;;;;5.27;2.77;;;;;;;15.93;72.30;101053.31;10371753;28;20034;-74
2023/04/15 10:30:07;;;;;;;5.18;3.45;;;;;;;15.98;69.60;101055.25;10338724;28;20407;-75
2023/04/15 10:35:08;;;;;;;4.95;2.92;;;;;;;15.61;73.89;101061.16;10340160;28;20478;-75
2023/04/15 10:40:30;;;;;;;5.38;2.80;;;;;;;15.16;74.66;101060.66;10357140;28;20088;-74
2023/04/15 10:45:32;;;;;;;5.07;3.15;;;;;;;14.69;76.14;101060.88;10354550;28;20045;-75
2023/04/15 10:50:33;;;;;;;;;;;;;;;14.08;80.07;101071.06;10365706;28;20045;-75
2023/04/15 10:55:34;;;;;;;5.80;2.80;;;;;;;14.13;75.90;101076.47;10389369;28;19928;-74
2023/04/15 11:00:36;;;;;;;5.68;3.35;;;;;;;13.70;81.35;101079.28;10371604;28;20042;-76
2023/04/15 11:05:52;;;;;;;;;;;;;;;13.61;83.77;101086.81;10348537;28;20516;-75
2023/04/15 11:10:52;;;;;;;6.65;4.35;;;;;;;13.65;83.12;101089.66;10359514;28;20446;-75
2023/04/15 11:15:57;;;;;;;7.28;3.92;;;;;;;13.50;83.62;101082.03;10360709;28;20034;-74
2023/04/15 11:20:59;;;;;;;3.40;2.38;;;;;;;14.00;83.01;101090.91;10360285;28;20038;-74
2023/04/15 11:26:01;;;;;;;7.07;3.78;;;;;;;14.41;84.53;101094.16;10331837;28;20064;-74
2023/04/15 11:31:05;;;;;;;6.10;3.83;;;;;;;14.56;82.54;101101.69;10362838;28;20552;-75
2023/04/15 11:36:06;;;;;;;7.13;4.07;;;;;;;14.52;85.71;101110.31;10346716;28;20429;-73
2023/04/15 11:41:07;;;;;;;7.25;4.57;;;;;;;14.78;84.33;101107.75;10348457;28;20034;-74
2023/04/15 11:46:07;;;;;;;6.78;3.75;;;;;;;15.29;86.26;101111.16;10347963;28;20113;-74
2023/04/15 11:51:08;;;;;;;6.47;3.72;;;;;;;15.57;84.03;101119.09;10365136;28;20128;-73
2023/04/15 11:56:09;;;;;;;10.30;5.05;;;;;;;15.67;80.95;101111.47;10346635;28;20066;-74
2023/04/15 12:01:10;;;;;;;5.82;3.60;;;;;;;15.53;82.47;101109.31;10396606;28;20038;-74
2023/04/15 12:06:23;;;;;;;5.82;3.63;;;;;;;15.77;82.41;101113.53;10344174;28;20069;-75
2023/04/15 12:11:36;;;;;;;5.78;3.60;;;;;;;15.55;84.19;101126.06;10344836;28;20076;-74
2023/04/15 12:16:41;;;;;;;5.13;3.35;;;;;;;16.55;78.33;101132.53;10368694;28;20042;-74
2023/04/15 12:21:46;;;;;;;7.85;3.08;;;;;;;16.41;74.88;101144.47;10351986;28;20053;-74
2023/04/15 12:26:51;;;;;;;5.18;2.85;;;;;;;15.77;74.63;101144.31;10360854;28;20509;-75
2023/04/15 12:31:56;;;;;;;7.07;3.22;;;;;;;15.40;75.00;101146.69;10361283;28;20418;-75
2023/04/15 12:36:57;;;;;;;5.07;2.78;;;;;;;15.99;72.75;101145.88;10344920;28;20037;-75
2023/04/15 12:42:00;;;;;;;4.53;2.83;;;;;;;16.27;74.40;101158.16;10365591;28;20054;-74
2023/04/15 12:47:00;;;;;;;7.35;2.88;;;;;;;15.71;74.14;101163.47;10368624;28;20117;-74
2023/04/15 12:52:01;;;;;;;4.32;2.80;;;;;;;14.86;78.99;101169.50;10364360;28;20044;-74
2023/04/15 12:57:02;;;;;;;3.38;1.75;;;;;;;15.52;71.97;101175.22;10377743;28;20041;-74
2023/04/15 13:02:02;;;;;;;4.43;2.53;;;;;;;15.13;70.58;101181.84;10379509;28;20177;-74
2023/04/15 13:07:03;;;;;;;3.33;2.30;;;;;;;15.52;75.72;101177.84;10346553;28;20103;-76
2023/04/15 13:12:04;;;;;;;5.03;2.35;;;;;;;16.12;70.01;101185.00;10366775;28;20106;-75
2023/04/15 13:17:09;;;;;;;2.83;1.65;;;;;;;15.02;70.94;101188.47;10364989;28;20049;-76
2023/04/15 13:22:10;;;;;;;3.22;2.00;;;;;;;14.29;76.11;101204.28;10365317;28;20057;-76
2023/04/15 13:27:11;;;;;;;7.20;2.60;;;;;;;15.16;77.99;101192.50;10362666;28;20033;-74
2023/04/15 13:32:11;;;;;;;3.88;2.10;;;;;;;15.57;74.01;101198.25;10351496;28;20400;-75
2023/04/15 13:37:12;;;;;;;3.92;2.35;;;;;;;14.96;77.17;101203.25;10382085;28;20129;-76
2023/04/15 13:42:12;;;;;;;4.05;1.92;;;;;;;14.68;78.37;101209.25;10363403;28;20074;-74
2023/04/15 13:47:14;;;;;;;7.50;3.20;;;;;;;15.79;75.06;101209.47;10341281;28;20052;-75
2023/04/15 13:52:15;;;;;;;4.47;2.70;;;;;;;14.76;75.96;101213.09;10360125;28;20038;-74
2023/04/15 13:57:15;;;;;;;6.57;3.47;;;;;;;14.40;79.89;101231.94;10383160;28;20061;-74
2023/04/15 14:02:16;;;;;;;7.45;2.22;;;;;;;14.12;83.23;101235.22;10341614;28;20474;-74
2023/04/15 14:07:16;;;;;;;2.63;1.70;;;;;;;14.10;78.61;101238.69;10356511;28;20105;-73
2023/04/15 14:12:17;;;;;;;5.57;1.90;;;;;;;13.79;79.84;101241.84;10374992;28;20120;-73
2023/04/15 14:17:17;;;;;;;3.63;1.77;;;;;;;13.28;87.53;101255.47;10344868;28;20129;-74
2023/04/15 14:22:18;;;;;;;4.20;1.88;;;;;;;13.53;87.70;101261.81;10345713;28;20046;-74
2023/04/15 14:27:18;;;;;;;3.17;1.17;;;;;;;13.00;85.28;101268.31;10353698;28;20088;-76
2023/04/15 14:32:19;;;;;;;2.70;1.40;;;;;;;12.85;88.76;101270.28;10355797;28;20117;-73
2023/04/15 14:37:20;;;;;;;4.10;1.73;;;;;;;13.17;88.89;101276.94;10309531;28;1165877;-74
2023/04/15 14:42:21;;;;;;;3.05;1.73;;;;;;;12.97;85.22;101277.78;10359335;28;20418;-75
2023/04/15 14:47:21;;;;;;;5.50;2.20;;;;;;;12.68;89.03;101293.13;10376629;28;20046;-76
2023/04/15 14:52:21;;;;;;;9.38;1.60;;;;;;;12.57;92.85;101301.41;10394270;28;20141;-75
2023/04/15 14:57:22;;;;;;;5.43;1.80;;;;;;;12.51;95.31;101302.88;10371421;28;20064;-75
2023/04/15 15:02:22;;;;;;;2.03;1.48;;;;;;;12.68;97.92;101312.44;10385021;28;20231;-74
2023/04/15 15:07:23;;;;;;;2.60;1.33;;;;;;;12.59;100.00;101317.25;10355786;28;20062;-74
2023/04/15 15:12:23;;;;;;;3.10;1.40;;;;;;;12.74;97.01;101324.94;10366263;28;20449;-74
2023/04/15 15:17:24;;;;;;;2.13;1.00;;;;;;;12.70;90.32;101329.16;10358777;28;20040;-75
2023/04/15 15:22:25;;;;;;;4.15;1.35;;;;;;;13.54;93.21;101331.97;10352775;28;20092;-75
2023/04/15 15:27:25;;;;;;;8.75;1.30;;;;;;;13.26;90.57;101333.34;10385292;28;20057;-75
2023/04/15 15:32:25;;;;;;;10.52;1.63;;;;;;;13.53;98.67;101335.44;10366504;28;20465;-74
2023/04/15 15:37:26;;;;;;;6.03;1.42;;;;;;;13.69;89.66;101334.38;10372742;28;20129;-75
2023/04/15 15:42:26;;;;;;;4.43;1.20;;;;;;;13.13;88.55;101339.81;10356955;28;20046;-74
2023/04/15 15:47:27;;;;;;;5.55;1.50;;;;;;;12.88;97.98;101357.09;10354170;28;20204;-75
2023/04/15 15:52:28;;;;;;;2.28;1.05;;;;;;;12.59;98.83;101352.28;10337584;28;20041;-75
2023/04/15 15:57:28;;;;;;;3.10;1.63;;;;;;;12.26;100.00;101375.19;10327750;28;20132;-74
2023/04/15 16:02:29;;;;;;;3.65;1.20;;;;;;;11.90;100.00;101382.19;10366332;28;20081;-73
2023/04/15 16:07:29;;;;;;;2.00;0.82;;;;;;;12.06;100.00;101398.72;10396945;28;20138;-75
2023/04/15 16:12:30;;;;;;;2.40;1.25;;;;;;;11.95;100.00;101405.13;10365041;28;20540;-75
2023/04/15 16:17:31;;;;;;;2.05;0.73;;;;;;;11.90;100.00;101412.75;10365568;28;20124;-75
2023/04/15 16:22:33;;;;;;;1.13;0.82;;;;;;;11.70;100.00;101412.63;10384940;28;20865;-75
2023/04/15 16:27:34;;;;;;;2.42;1.05;;;;;;;11.65;100.00;101427.22;10342743;28;20553;-75
2023/04/15 16:32:34;;;;;;;1.65;0.98;;;;;;;11.54;100.00;101437.16;10361368;28;20102;-74
2023/04/15 16:37:35;;;;;;;2.17;0.85;;;;;;;11.57;100.00;101447.78;10362389;28;20065;-74
2023/04/15 16:42:35;;;;;;;1.55;0.93;;;;;;;11.12;100.00;101458.47;10361873;28;20132;-74
2023/04/15 16:47:36;;;;;;;4.38;2.10;;;;;;;10.87;100.00;101459.75;10373882;28;20120;-74
2023/04/15 16:52:37;;;;;;;4.90;1.50;;;;;;;10.62;100.00;101473.19;10364408;28;20033;-75
2023/04/15 16:57:37;;;;;;;5.40;2.15;;;;;;;10.45;100.00;101466.09;10351719;28;20487;-75
2023/04/15 17:02:37;;;;;;;3.25;2.15;;;;;;;10.17;100.00;101485.38;10360548;28;20129;-75
2023/04/15 17:07:38;;;;;;;3.00;1.70;;;;;;;9.88;100.00;101488.03;10386232;28;20124;-75
2023/04/15 17:12:39;;;;;;;3.38;2.20;;;;;;;9.79;100.00;101504.06;10402345;28;20033;-75
2023/04/15 17:17:39;;;;;;;4.60;1.98;;;;;;;9.66;100.00;101512.84;10385439;28;20482;-75
2023/04/15 17:22:40;;;;;;;4.55;2.33;;;;;;;9.63;100.00;101511.78;10354838;28;20144;-75
2023/04/15 17:27:40;;;;;;;5.63;3.10;;;;;;;9.53;100.00;101513.81;10354326;28;20112;-75
2023/04/15 17:32:41;;;;;;;5.72;2.63;;;;;;;9.36;100.00;101515.38;10358387;28;20096;-76
2023/04/15 17:37:41;;;;;;;5.57;3.08;;;;;;;9.25;100.00;101522.53;10356898;28;20041;-75
2023/04/15 17:42:42;;;;;;;9.35;3.88;;;;;;;9.17;100.00;101528.06;10362440;28;20042;-75
2023/04/15 17:47:42;;;;;;;7.43;2.78;;;;;;;9.03;100.00;101545.47;10352975;28;20046;-75
2023/04/15 17:52:43;;;;;;;7.03;2.85;;;;;;;8.96;100.00;101562.44;10358276;28;20129;-75
2023/04/15 17:57:44;;;;;;;7.53;3.72;;;;;;;8.96;100.00;101565.03;10395136;28;20060;-75
2023/04/15 18:02:47;;;;;;;8.02;2.88;;;;;;;8.85;100.00;101572.19;10374198;28;20104;-75
2023/04/15 18:07:49;;;;;;;;;;;;;;;8.83;100.00;101573.78;10391592;28;20040;-76
2023/04/15 18:12:49;;;;;;;4.65;2.15;;;;;;;8.77;100.00;101587.31;10404569;28;19930;-75
2023/04/15 18:17:50;;;;;;;11.45;3.65;;;;;;;8.68;100.00;101589.31;10375908;28;20466;-75
2023/04/15 18:22:50;;;;;;;5.15;2.20;;;;;;;8.60;100.00;101598.34;10377456;28;20385;-75
2023/04/15 18:27:51;;;;;;;12.27;4.00;;;;;;;8.53;100.00;101604.88;10373564;28;20046;-75
2023/04/15 18:32:51;;;;;;;5.85;2.75;;;;;;;8.45;100.00;101619.06;10372749;28;20107;-75
2023/04/15 18:37:52;;;;;;;7.22;2.97;;;;;;;8.41;100.00;101624.88;10382277;28;20064;-76
2023/04/15 18:42:52;;;;;;;2.88;1.77;;;;;;;8.33;100.00;101626.94;10341729;28;20129;-76
2023/04/15 18:47:56;;;;;;;8.43;2.92;;;;;;;8.22;100.00;101627.09;10376808;28;20500;-76
2023/04/15 18:53:05;;;;;;;7.30;2.33;;;;;;;8.17;100.00;101643.22;10389345;28;20034;-75
2023/04/15 18:58:06;;;;;;;7.38;3.28;;;;;;;8.17;100.00;101662.38;10353153;28;20038;-75
2023/04/15 19:03:06;;;;;;;7.50;2.63;;;;;;;8.11;100.00;101663.66;10372655;28;20532;-76
2023/04/15 19:08:07;;;;;;;11.40;4.32;;;;;;;7.92;100.00;101668.47;10387464;28;21030;-75
2023/04/15 19:13:10;;;;;;;6.22;2.75;;;;;;;7.78;100.00;101679.59;10374137;28;20765;-75
2023/04/15 19:18:11;;;;;;;8.40;3.28;;;;;;;7.68;100.00;101685.88;10373997;28;20046;-75
2023/04/15 19:23:14;;;;;;;9.00;2.63;;;;;;;7.53;100.00;101679.53;10360897;28;20141;-74
2023/04/15 19:28:15;;;;;;;7.80;3.50;;;;;;;7.44;100.00;101693.69;10341738;28;20050;-75
2023/04/15 19:33:15;;;;;;;4.72;2.50;;;;;;;7.39;100.00;101692.44;10373401;28;20128;-74
2023/04/15 19:38:16;;;;;;;7.25;3.90;;;;;;;7.28;100.00;101711.59;10366522;28;20041;-76
2023/04/15 19:43:16;;;;;;;6.97;3.40;;;;;;;7.14;100.00;101719.28;10366674;28;20397;-75
2023/04/15 19:48:17;;;;;;;6.65;3.90;;;;;;;7.04;100.00;101717.66;10377846;28;20044;-75
2023/04/15 19:53:18;;;;;;;8.15;3.70;;;;;;;6.98;100.00;101726.72;10423194;28;20042;-75
2023/04/15 19:58:18;;;;;;;12.07;3.90;;;;;;;6.98;100.00;101722.38;10379019;28;20060;-75
2023/04/15 20:03:19;;;;;;;14.50;4.40;;;;;;;6.95;100.00;101735.16;10359718;28;20125;-75
2023/04/15 20:08:20;;;;;;;11.02;4.63;;;;;;;6.90;100.00;101736.53;10402004;28;20069;-75
2023/04/15 20:13:20;;;;;;;8.80;3.55;;;;;;;6.85;100.00;101736.19;10348028;28;20076;-74
2023/04/15 20:18:21;;;;;;;16.65;6.32;;;;;;;6.78;100.00;101727.78;10365172;28;20505;-75
2023/04/15 20:23:21;;;;;;;10.65;3.65;;;;;;;6.85;100.00;101735.25;10355204;28;20552;-75
2023/04/15 20:28:24;;;;;;;7.78;3.63;;;;;;;6.84;100.00;101741.25;10336168;28;20069;-75
2023/04/15 20:33:26;;;;;;;8.35;3.85;;;;;;;6.80;100.00;101736.59;10352271;28;20038;-75
2023/04/15 20:38:26;;;;;;;9.73;2.95;;;;;;;6.74;100.00;101745.75;10363739;28;20077;-75
2023/04/15 20:43:27;;;;;;;8.20;3.35;;;;;;;6.69;100.00;101744.47;10363806;28;20121;-75
2023/04/15 20:48:27;;;;;;;5.82;2.67;;;;;;;6.60;100.00;101748.97;10365214;28;20133;-74
2023/04/15 20:53:28;;;;;;;5.32;2.35;;;;;;;6.57;100.00;101753.94;10358935;28;20180;-74
2023/04/15 20:58:28;;;;;;;5.03;3.83;;;;;;;6.44;100.00;101752.09;10362781;28;20061;-74
2023/04/15 21:03:29;;;;;;;7.60;3.05;;;;;;;6.29;100.00;101769.97;10383443;28;20050;-75
2023/04/15 21:08:30;;;;;;;8.57;3.63;;;;;;;6.21;100.00;101777.16;10363232;28;20033;-74
2023/04/15 21:13:30;;;;;;;10.68;4.22;;;;;;;6.17;100.00;101778.59;10358166;28;20181;-75
2023/04/15 21:18:31;;;;;;;7.35;3.67;;;;;;;6.20;100.00;101792.63;10381536;28;20042;-75
2023/04/15 21:23:34;;;;;;;17.70;5.40;;;;;;;6.26;100.00;101791.44;10401404;28;20061;-75
2023/04/15 21:28:36;;;;;;;10.25;4.50;;;;;;;6.28;100.00;101801.94;10386254;28;20068;-75
2023/04/15 21:33:36;;;;;;;14.83;3.60;;;;;;;6.17;100.00;101806.31;10355318;28;20072;-74
2023/04/15 21:38:37;;;;;;;14.48;5.13;;;;;;;6.13;100.00;101819.84;10361848;28;20037;-74
2023/04/15 21:43:37;;;;;;;12.38;4.78;;;;;;;6.10;100.00;101822.19;10346363;28;20121;-74
2023/04/15 21:48:38;;;;;;;7.15;4.10;;;;;;;6.04;100.00;101825.19;10306639;28;20503;-75
2023/04/15 21:53:38;;;;;;;7.30;5.38;;;;;;;6.04;100.00;101819.09;10320015;28;20185;-75
2023/04/15 21:58:39;;;;;;;15.50;5.65;;;;;;;6.09;100.00;101823.88;10332288;28;20042;-74
2023/04/15 22:03:39;;;;;;;14.75;5.75;;;;;;;6.07;100.00;101832.34;10363763;28;20045;-74
2023/04/15 22:08:40;;;;;;;15.25;4.63;;;;;;;6.09;100.00;101829.06;10382724;28;20068;-75
2023/04/15 22:13:40;;;;;;;8.60;5.47;;;;;;;6.07;100.00;101827.13;10378959;28;20130;-74
2023/04/15 22:18:41;;;;;;;13.38;5.80;;;;;;;6.10;100.00;101837.78;10359312;28;20121;-74
2023/04/15 22:23:45;;;;;;;24.63;7.13;;;;;;;6.12;100.00;101841.41;10374461;28;20042;-75
2023/04/15 22:28:46;;;;;;;9.77;5.22;;;;;;;6.10;100.00;101843.88;10361393;28;20034;-75
2023/04/15 22:33:46;;;;;;;13.43;5.90;;;;;;;6.17;100.00;101842.69;10390068;28;20120;-74
2023/04/15 22:38:47;;;;;;;9.00;4.43;;;;;;;6.19;100.00;101845.41;10391203;28;20130;-74
2023/04/15 22:43:47;;;;;;;12.85;5.55;;;;;;;6.23;100.00;101852.66;10363432;28;20426;-74
2023/04/15 22:48:48;;;;;;;14.48;4.57;;;;;;;6.24;100.00;101847.59;10383900;28;20034;-75
2023/04/15 22:53:49;;;;;;;15.10;6.22;;;;;;;6.25;100.00;101852.03;10383028;28;20132;-76